Terminal Aerodrome Forecast
Issued by NWS Grand Junction, CO

Home | Current Version | Previous Version | Text Only | Print | Product List | Glossary On
Versions: 1 2 3 4 5 6 7 8 9 10 11 12 13 14 15 16
000
FTUS45 KGJT 221136
TAFGJT
TAF
KGJT 221136Z 2212/2312 11012KT P6SM SCT200
     FM221800 18005KT P6SM FEW110 SCT200
     FM222000 27007KT P6SM SCT110 SCT200
     FM230200 12010KT P6SM BKN110
     FM230600 11007KT P6SM SCT110=

USA.gov is the U.S. government's official web portal to all federal, state and local government web resources and services.